Time;durP1;ratioP1;P1;durP2;ratioP2;P2;SDS_P1;SDS_P2;PMS_P1;PMS_P2;Temp;Humidity;BMP_temperature;BMP_pressure;BME280_temperature;BME280_humidity;BME280_pressure;Samples;Min_cycle;Max_cycle;Signal;HPM_P1;HPM_P2
2023/07/02 00:02:16;;;;;;;13.70;11.00;;;;;;;16.38;74.73;98983.58;129575;1270;105871;-75
2023/07/02 00:05:21;;;;;;;14.30;11.70;;;;;;;16.36;74.90;98978.09;129575;1271;107288;-74
2023/07/02 00:08:27;;;;;;;16.30;12.80;;;;;;;16.36;75.01;98975.11;129555;1268;105560;-75
2023/07/02 00:11:32;;;;;;;16.70;12.90;;;;;;;16.34;74.99;98978.61;129520;1269;108714;-75
2023/07/02 00:14:38;;;;;;;16.50;12.90;;;;;;;16.32;75.12;98979.45;129550;1268;107293;-74
2023/07/02 00:17:44;;;;;;;16.50;12.30;;;;;;;16.27;75.27;98977.27;129494;1280;107301;-75
2023/07/02 00:20:49;;;;;;;15.50;12.10;;;;;;;16.24;75.53;98976.97;129527;1270;106652;-75
2023/07/02 00:23:57;;;;;;;17.80;13.80;;;;;;;16.26;75.77;98971.43;129608;1271;107541;-75
2023/07/02 00:27:02;;;;;;;17.40;12.80;;;;;;;16.31;76.09;98972.42;129561;1270;107577;-75
2023/07/02 00:30:10;;;;;;;17.90;13.30;;;;;;;16.34;76.28;98971.19;129563;1281;107569;-75
2023/07/02 00:33:15;;;;;;;18.20;13.90;;;;;;;16.35;76.56;98971.27;129574;1270;106302;-74
2023/07/02 00:36:21;;;;;;;17.40;13.40;;;;;;;16.37;76.90;98972.98;129535;1271;106680;-75
2023/07/02 00:39:27;;;;;;;15.00;11.40;;;;;;;16.40;77.14;98968.28;129469;1269;177452;-75
2023/07/02 00:42:32;;;;;;;18.30;12.90;;;;;;;16.42;77.27;98972.52;129558;1271;107575;-75
2023/07/02 00:45:38;;;;;;;18.60;13.80;;;;;;;16.45;77.29;98971.20;129589;1266;107391;-75
2023/07/02 00:48:44;;;;;;;18.80;13.60;;;;;;;16.46;77.31;98971.12;129459;1271;107579;-75
2023/07/02 00:51:49;;;;;;;18.40;13.10;;;;;;;16.49;77.74;98968.52;129546;1269;107500;-75
2023/07/02 00:54:55;;;;;;;17.70;12.80;;;;;;;16.54;78.11;98967.27;129429;1268;107565;-75
2023/07/02 00:58:01;;;;;;;17.10;12.00;;;;;;;16.59;78.36;98962.69;129596;1269;107429;-75
2023/07/02 01:01:07;;;;;;;17.20;12.00;;;;;;;16.66;78.63;98959.81;129586;1271;107411;-75
2023/07/02 01:04:13;;;;;;;16.20;12.20;;;;;;;16.74;78.88;98959.63;129600;1268;107308;-75
2023/07/02 01:07:18;;;;;;;15.80;12.70;;;;;;;16.85;78.99;98956.50;129533;1270;107573;-75
2023/07/02 01:10:24;;;;;;;16.60;12.00;;;;;;;16.93;79.20;98952.67;129571;1267;107624;-75
2023/07/02 01:13:30;;;;;;;15.00;9.40;;;;;;;17.00;79.31;98950.67;129387;1270;107300;-74
2023/07/02 01:16:37;;;;;;;17.40;12.00;;;;;;;17.07;79.35;98950.71;129590;1272;107315;-74
2023/07/02 01:19:51;;;;;;;16.10;11.90;;;;;;;17.14;79.50;98947.30;129601;1271;106001;-74
2023/07/02 01:23:02;;;;;;;15.10;12.00;;;;;;;17.22;79.51;98947.77;129588;1270;107391;-75
2023/07/02 01:26:07;;;;;;;15.50;11.90;;;;;;;17.26;79.56;98943.94;129534;1269;107586;-75
2023/07/02 01:29:22;;;;;;;13.50;10.70;;;;;;;17.30;79.75;98942.91;129523;1269;107611;-75
2023/07/02 01:32:28;;;;;;;14.00;11.00;;;;;;;17.31;79.78;98939.65;129516;1270;107557;-74
2023/07/02 01:35:34;;;;;;;15.00;11.60;;;;;;;17.35;79.93;98937.60;129556;1269;107606;-75
2023/07/02 01:38:39;;;;;;;14.70;11.50;;;;;;;17.39;79.88;98936.25;129557;1271;107598;-75
2023/07/02 01:41:51;;;;;;;14.80;11.90;;;;;;;17.45;79.93;98933.05;129466;1273;107564;-75
2023/07/02 01:44:56;;;;;;;14.90;12.10;;;;;;;17.48;79.99;98930.38;129579;1271;108682;-75
2023/07/02 01:48:02;;;;;;;14.90;11.80;;;;;;;17.47;80.05;98926.27;129504;1271;107271;-75
2023/07/02 01:51:07;;;;;;;15.80;10.70;;;;;;;17.46;80.17;98923.17;129394;1271;107574;-75
2023/07/02 01:54:13;;;;;;;16.20;11.60;;;;;;;17.46;80.20;98921.34;129521;1278;107278;-75
2023/07/02 01:57:18;;;;;;;14.40;11.50;;;;;;;17.46;80.10;98921.88;129532;1271;106522;-74
2023/07/02 02:00:26;;;;;;;15.30;11.80;;;;;;;17.42;80.00;98919.58;129435;1274;107589;-75
2023/07/02 02:03:32;;;;;;;15.70;11.50;;;;;;;17.38;80.03;98917.02;129522;1270;107701;-75
2023/07/02 02:06:39;;;;;;;18.10;11.50;;;;;;;17.32;80.13;98914.83;129313;1270;107389;-75
2023/07/02 02:09:44;;;;;;;14.40;10.90;;;;;;;17.30;80.33;98918.46;129494;1272;107557;-75
2023/07/02 02:12:50;;;;;;;15.80;11.50;;;;;;;17.32;80.56;98914.42;129347;1271;106343;-75
2023/07/02 02:15:56;;;;;;;12.30;9.60;;;;;;;17.35;80.57;98912.96;129533;1270;106624;-75
2023/07/02 02:19:02;;;;;;;13.40;10.50;;;;;;;17.50;80.89;98912.20;129611;1269;105983;-75
2023/07/02 02:22:07;;;;;;;14.80;10.00;;;;;;;17.87;80.57;98907.30;129566;1280;107410;-75
2023/07/02 02:25:13;;;;;;;10.80;8.80;;;;;;;18.11;80.20;98901.33;129464;1274;107409;-75
2023/07/02 02:28:18;;;;;;;12.70;8.90;;;;;;;18.39;80.00;98899.77;129547;1270;107563;-75
2023/07/02 02:31:24;;;;;;;12.60;10.10;;;;;;;18.65;79.76;98903.95;129524;1267;107563;-75
2023/07/02 02:34:30;;;;;;;10.70;9.40;;;;;;;18.85;79.76;98898.95;129591;1274;107587;-76
2023/07/02 02:37:39;;;;;;;11.30;9.50;;;;;;;19.11;79.57;98900.09;129393;1272;106848;-76
2023/07/02 02:40:45;;;;;;;11.10;9.30;;;;;;;19.35;79.19;98898.05;129430;1267;107534;-75
2023/07/02 02:43:53;;;;;;;11.90;8.60;;;;;;;19.49;78.89;98899.80;129323;1273;107610;-75
2023/07/02 02:46:59;;;;;;;10.70;9.00;;;;;;;19.60;78.67;98902.65;129538;1271;107638;-76
2023/07/02 02:50:06;;;;;;;11.50;9.10;;;;;;;19.73;78.68;98903.37;129473;1272;108171;-76
2023/07/02 02:53:12;;;;;;;11.00;9.00;;;;;;;19.93;78.45;98901.89;129467;1273;107569;-76
2023/07/02 02:56:17;;;;;;;11.40;9.50;;;;;;;20.11;78.20;98896.14;129488;1280;107452;-77
2023/07/02 02:59:23;;;;;;;12.40;9.30;;;;;;;20.20;77.93;98895.41;129450;1276;108708;-75
2023/07/02 03:02:29;;;;;;;11.10;9.70;;;;;;;20.26;77.59;98897.27;129507;1272;109136;-74
2023/07/02 03:05:34;;;;;;;11.90;8.30;;;;;;;20.34;77.48;98896.69;129407;1272;107606;-75
2023/07/02 03:08:40;;;;;;;11.50;8.60;;;;;;;20.44;77.32;98896.38;129529;1274;106610;-75
2023/07/02 03:11:45;;;;;;;12.70;8.60;;;;;;;20.51;76.90;98893.60;129452;1270;107487;-74
2023/07/02 03:14:54;;;;;;;11.00;8.60;;;;;;;20.58;76.80;98896.30;129350;1271;107572;-74
2023/07/02 03:18:00;;;;;;;10.90;9.00;;;;;;;20.66;76.52;98895.16;129476;1272;108015;-74
2023/07/02 03:21:05;;;;;;;12.00;9.20;;;;;;;20.69;76.18;98893.09;129524;1271;106402;-75
2023/07/02 03:24:11;;;;;;;10.30;8.50;;;;;;;20.70;76.07;98889.79;129477;1277;107316;-75
2023/07/02 03:27:17;;;;;;;10.40;8.40;;;;;;;20.68;76.02;98892.98;129461;1280;107410;-75
2023/07/02 03:30:22;;;;;;;10.10;8.60;;;;;;;20.64;75.70;98891.45;129391;1271;106804;-75
2023/07/02 03:33:28;;;;;;;9.70;8.70;;;;;;;20.61;75.69;98894.23;129434;1271;107552;-75
2023/07/02 03:36:33;;;;;;;10.70;8.60;;;;;;;20.60;75.56;98890.70;129473;1281;107566;-76
2023/07/02 03:39:39;;;;;;;10.80;8.40;;;;;;;20.59;75.50;98891.75;129614;1270;107414;-76
2023/07/02 03:42:45;;;;;;;9.10;7.60;;;;;;;20.59;75.30;98892.76;129560;1271;107546;-75
2023/07/02 03:45:51;;;;;;;10.70;7.90;;;;;;;20.64;75.20;98891.67;129553;1279;107598;-75
2023/07/02 03:48:56;;;;;;;9.90;7.80;;;;;;;20.66;75.08;98890.83;129548;1271;107579;-75
2023/07/02 03:52:02;;;;;;;9.20;8.10;;;;;;;20.66;74.82;98887.80;129554;1269;108670;-75
2023/07/02 03:55:09;;;;;;;10.30;8.30;;;;;;;20.62;74.52;98887.73;129586;1270;107630;-75
2023/07/02 03:58:14;;;;;;;10.70;8.30;;;;;;;20.52;74.58;98889.73;129538;1271;107284;-75
2023/07/02 04:01:20;;;;;;;10.80;8.20;;;;;;;20.52;74.66;98891.98;129566;1278;107431;-75
2023/07/02 04:04:25;;;;;;;10.10;7.90;;;;;;;20.53;74.39;98893.20;129577;1278;106557;-75
2023/07/02 04:07:31;;;;;;;9.80;8.10;;;;;;;20.49;74.28;98883.23;129551;1273;106293;-75
2023/07/02 04:10:37;;;;;;;8.70;7.00;;;;;;;20.47;74.17;98880.31;129620;1281;107311;-76
2023/07/02 04:13:42;;;;;;;8.10;6.60;;;;;;;20.47;74.18;98882.92;129514;1267;108816;-75
2023/07/02 04:16:48;;;;;;;9.40;7.50;;;;;;;20.51;73.80;98887.85;129586;1267;107514;-75
2023/07/02 04:19:56;;;;;;;9.10;7.20;;;;;;;20.19;72.08;98900.42;129526;1279;107496;-74
2023/07/02 04:23:02;;;;;;;9.00;7.70;;;;;;;19.91;73.91;98897.05;129506;1280;107585;-75
2023/07/02 04:26:07;;;;;;;8.70;7.30;;;;;;;20.18;74.23;98897.83;129597;1270;107964;-75
2023/07/02 04:29:13;;;;;;;8.30;7.10;;;;;;;20.41;73.91;98897.91;129532;1279;107556;-75
2023/07/02 04:32:18;;;;;;;10.40;7.30;;;;;;;20.51;73.67;98901.52;129553;1273;107576;-75
2023/07/02 04:35:24;;;;;;;9.30;7.50;;;;;;;20.65;73.57;98897.05;129527;1271;107531;-75
2023/07/02 04:38:30;;;;;;;8.50;7.20;;;;;;;20.78;73.38;98899.97;129655;1270;108064;-75
2023/07/02 04:41:35;;;;;;;9.30;7.40;;;;;;;20.90;73.26;98895.88;129508;1270;105876;-75
2023/07/02 04:44:43;;;;;;;8.80;7.70;;;;;;;21.01;72.92;98900.39;129403;1270;107560;-75
2023/07/02 04:47:48;;;;;;;8.70;7.30;;;;;;;21.10;72.94;98901.90;129545;1267;107438;-75
2023/07/02 04:50:54;;;;;;;9.10;7.30;;;;;;;21.15;72.78;98905.59;129400;1273;107482;-75
2023/07/02 04:53:59;;;;;;;9.20;6.60;;;;;;;21.14;72.70;98905.58;129590;1281;107551;-75
2023/07/02 04:57:06;;;;;;;8.90;7.10;;;;;;;21.13;72.67;98907.85;129516;1268;107560;-75
2023/07/02 05:00:14;;;;;;;8.50;7.00;;;;;;;21.13;72.46;98908.39;129535;1267;107636;-75
2023/07/02 05:03:19;;;;;;;8.80;7.00;;;;;;;21.15;72.43;98904.73;129620;1271;107577;-75
2023/07/02 05:06:25;;;;;;;7.70;6.90;;;;;;;21.19;72.44;98905.85;129437;1282;106929;-75
2023/07/02 05:09:30;;;;;;;9.10;7.40;;;;;;;21.29;72.18;98911.42;129433;1271;107554;-75
2023/07/02 05:12:36;;;;;;;9.10;6.90;;;;;;;21.34;71.94;98914.18;129332;1267;107243;-75
2023/07/02 05:15:41;;;;;;;8.50;7.10;;;;;;;21.40;71.92;98913.59;129395;1272;107747;-76
2023/07/02 05:18:47;;;;;;;8.70;6.80;;;;;;;21.44;71.53;98919.11;129369;1271;107591;-75
2023/07/02 05:21:52;;;;;;;8.40;6.70;;;;;;;21.45;71.51;98924.41;129405;1273;107582;-75
2023/07/02 05:24:58;;;;;;;9.70;7.00;;;;;;;21.46;71.27;98923.73;129444;1281;107457;-75
2023/07/02 05:28:03;;;;;;;8.00;7.00;;;;;;;21.50;71.29;98926.41;129391;1274;107570;-75
2023/07/02 05:31:09;;;;;;;8.10;6.90;;;;;;;21.55;71.09;98929.45;129351;1271;107580;-75
2023/07/02 05:34:14;;;;;;;9.00;6.50;;;;;;;21.62;70.73;98928.64;129372;1267;107286;-75
2023/07/02 05:37:20;;;;;;;9.30;7.30;;;;;;;21.65;70.59;98931.55;129367;1270;107547;-75
2023/07/02 05:40:25;;;;;;;7.70;6.50;;;;;;;21.68;69.66;98934.77;129389;1281;107302;-75
2023/07/02 05:43:31;;;;;;;8.00;6.60;;;;;;;21.60;69.62;98925.20;129435;1281;106262;-74
2023/07/02 05:46:36;;;;;;;8.60;6.50;;;;;;;21.54;70.08;98924.94;129492;1270;107550;-74
2023/07/02 05:49:45;;;;;;;10.10;7.30;;;;;;;21.65;70.16;98929.77;129483;1268;107575;-77
2023/07/02 05:52:50;;;;;;;8.90;7.20;;;;;;;21.75;69.91;98935.54;129545;1281;108823;-75
2023/07/02 05:55:56;;;;;;;8.30;7.40;;;;;;;21.90;69.63;98944.93;129379;1270;107463;-75
2023/07/02 05:59:02;;;;;;;8.40;6.60;;;;;;;22.02;69.43;98944.70;129469;1281;107437;-75
2023/07/02 06:02:08;;;;;;;9.10;6.70;;;;;;;22.04;69.08;98942.55;129476;1267;107662;-77
2023/07/02 06:05:14;;;;;;;7.10;6.20;;;;;;;22.02;68.95;98946.39;129389;1273;107904;-77
2023/07/02 06:08:19;;;;;;;8.10;7.30;;;;;;;22.01;68.98;98940.84;129444;1278;107109;-77
2023/07/02 06:11:25;;;;;;;6.90;6.10;;;;;;;22.00;68.94;98939.26;129483;1271;107636;-79
2023/07/02 06:14:32;;;;;;;7.00;5.70;;;;;;;21.89;67.75;98934.63;129502;1280;107492;-76
2023/07/02 06:17:38;;;;;;;8.10;6.10;;;;;;;21.60;67.87;98942.36;129454;1281;107581;-75
2023/07/02 06:20:44;;;;;;;7.60;5.70;;;;;;;21.49;68.31;98950.17;129497;1267;108749;-74
2023/07/02 06:23:50;;;;;;;7.40;6.10;;;;;;;21.46;68.37;98951.73;129463;1270;108043;-73
2023/07/02 06:26:55;;;;;;;6.70;6.00;;;;;;;21.53;68.88;98957.60;129510;1270;107560;-73
2023/07/02 06:30:00;;;;;;;8.00;6.10;;;;;;;21.61;68.11;98960.98;129708;1266;107587;-73
2023/07/02 06:33:06;;;;;;;6.60;5.80;;;;;;;21.63;68.11;98954.38;129562;1270;107717;-73
2023/07/02 06:36:13;;;;;;;7.40;5.90;;;;;;;21.62;68.12;98962.08;129511;1267;107540;-72
2023/07/02 06:39:18;;;;;;;7.40;5.60;;;;;;;21.67;67.50;98969.56;129690;1271;107504;-75
2023/07/02 06:42:25;;;;;;;6.80;5.70;;;;;;;21.29;66.68;98979.69;129609;1270;107633;-74
2023/07/02 06:45:30;;;;;;;6.20;5.50;;;;;;;21.02;67.96;98978.61;129538;1270;107302;-74
2023/07/02 06:48:36;;;;;;;6.30;5.30;;;;;;;20.93;68.06;98979.10;129492;1267;108179;-74
2023/07/02 06:51:41;;;;;;;5.60;5.00;;;;;;;21.02;68.60;98983.23;129493;1278;107549;-73
2023/07/02 06:54:46;;;;;;;5.40;4.90;;;;;;;21.10;68.28;98982.45;129528;1270;106735;-74
2023/07/02 06:57:53;;;;;;;6.40;5.40;;;;;;;21.00;68.19;98982.45;129553;1267;107702;-73
2023/07/02 07:00:58;;;;;;;7.40;5.30;;;;;;;20.88;68.77;98986.59;129539;1271;107501;-74
2023/07/02 07:04:04;;;;;;;6.40;5.30;;;;;;;20.96;68.88;98985.16;129534;1270;107570;-74
2023/07/02 07:07:10;;;;;;;6.00;5.10;;;;;;;21.04;68.74;98983.31;129570;1277;106127;-74
2023/07/02 07:10:15;;;;;;;6.80;5.00;;;;;;;21.08;68.94;98981.84;129608;1271;107611;-74
2023/07/02 07:13:21;;;;;;;5.70;5.10;;;;;;;21.22;68.73;98979.88;129524;1269;107508;-73
2023/07/02 07:16:27;;;;;;;6.00;4.80;;;;;;;21.50;68.73;98972.64;129503;1270;107479;-74
2023/07/02 07:19:32;;;;;;;6.30;4.40;;;;;;;21.79;68.68;98965.12;129512;1270;107503;-73
2023/07/02 07:22:38;;;;;;;4.60;4.10;;;;;;;22.10;68.48;98964.55;129523;1270;107589;-73
2023/07/02 07:25:44;;;;;;;6.00;4.10;;;;;;;22.41;68.08;98968.21;129620;1270;107503;-73
2023/07/02 07:28:50;;;;;;;6.00;4.40;;;;;;;22.70;67.43;98972.39;129583;1270;107550;-74
2023/07/02 07:31:55;;;;;;;6.10;4.10;;;;;;;22.88;66.82;98969.70;129537;1270;107577;-73
2023/07/02 07:35:00;;;;;;;5.40;4.00;;;;;;;22.99;66.52;98975.47;129574;1267;107589;-74
2023/07/02 07:38:06;;;;;;;3.70;3.40;;;;;;;22.86;65.47;98983.79;129550;1267;107542;-74
2023/07/02 07:41:12;;;;;;;4.20;3.50;;;;;;;22.48;66.61;98989.56;129568;1270;107520;-74
2023/07/02 07:44:17;;;;;;;5.10;3.70;;;;;;;22.30;66.81;98996.99;129554;1270;107381;-74
2023/07/02 07:47:23;;;;;;;4.40;3.30;;;;;;;22.15;66.90;99000.11;129550;1271;107579;-73
2023/07/02 07:50:28;;;;;;;4.00;3.70;;;;;;;22.02;67.03;99000.99;129533;1267;108188;-77
2023/07/02 07:53:34;;;;;;;4.10;3.60;;;;;;;21.86;67.18;99004.65;129521;1267;107559;-75
2023/07/02 07:56:39;;;;;;;4.20;3.40;;;;;;;21.79;67.12;99005.63;129572;1271;107593;-74
2023/07/02 07:59:45;;;;;;;4.50;3.40;;;;;;;21.78;67.24;99004.81;129572;1270;106480;-75
2023/07/02 08:02:52;;;;;;;5.50;3.50;;;;;;;21.93;67.32;99003.80;129542;1270;106818;-73
2023/07/02 08:05:57;;;;;;;4.20;3.50;;;;;;;22.11;67.28;98999.11;129577;1267;107427;-74
2023/07/02 08:09:04;;;;;;;4.60;3.40;;;;;;;22.24;67.07;99004.39;129851;1269;107458;-74
2023/07/02 08:12:10;;;;;;;5.80;3.60;;;;;;;22.28;67.07;99003.40;129559;1267;107333;-72
2023/07/02 08:15:16;;;;;;;4.60;3.30;;;;;;;22.31;67.11;99011.35;129508;1270;107569;-72
2023/07/02 08:18:21;;;;;;;4.20;3.80;;;;;;;22.26;66.93;99014.80;129501;1270;107551;-72
2023/07/02 08:21:27;;;;;;;6.90;3.70;;;;;;;22.27;66.96;99014.05;129409;1270;107530;-72
2023/07/02 08:24:33;;;;;;;6.30;3.60;;;;;;;22.41;66.78;99014.79;129907;1270;107696;-73
2023/07/02 08:27:39;;;;;;;3.70;3.30;;;;;;;22.47;66.41;99023.37;129524;1268;107324;-74
2023/07/02 08:30:44;;;;;;;3.50;3.20;;;;;;;22.44;66.75;99024.65;129427;1267;106568;-74
2023/07/02 08:33:50;;;;;;;3.60;3.30;;;;;;;22.62;66.74;99022.59;129640;1270;107567;-74
2023/07/02 08:36:55;;;;;;;3.80;3.50;;;;;;;22.89;66.21;99020.67;129602;1270;107563;-74
2023/07/02 08:40:00;;;;;;;3.50;3.00;;;;;;;23.07;66.15;99025.69;129650;1271;107538;-74
2023/07/02 08:43:06;;;;;;;4.20;3.20;;;;;;;23.06;66.19;99025.31;129597;1267;105851;-74
2023/07/02 08:46:12;;;;;;;3.50;3.20;;;;;;;23.17;66.08;99027.98;129576;1270;106588;-74
2023/07/02 08:49:18;;;;;;;3.30;3.00;;;;;;;23.39;65.77;99021.68;129606;1280;107329;-74
2023/07/02 08:52:24;;;;;;;3.50;3.20;;;;;;;23.61;65.70;99017.53;129518;1267;107299;-74
2023/07/02 08:55:29;;;;;;;4.10;3.10;;;;;;;23.79;65.37;99017.05;129481;1270;107540;-74
2023/07/02 08:58:35;;;;;;;4.20;3.10;;;;;;;23.97;65.01;99026.27;129584;1270;107566;-75
2023/07/02 09:01:57;;;;;;;3.50;2.80;;;;;;;23.99;63.96;99030.80;129349;1270;107484;-74
2023/07/02 09:05:04;;;;;;;3.50;3.00;;;;;;;23.78;64.24;99027.67;129483;1267;107322;-74
2023/07/02 09:08:09;;;;;;;3.50;3.10;;;;;;;23.82;64.68;99029.64;129503;1270;107419;-74
2023/07/02 09:11:17;;;;;;;3.60;3.00;;;;;;;23.86;64.34;99029.05;129599;1267;108033;-74
2023/07/02 09:14:30;;;;;;;3.20;2.60;;;;;;;23.70;63.00;99038.98;129578;1270;107578;-74
2023/07/02 09:17:38;;;;;;;3.60;2.50;;;;;;;23.30;63.21;99038.95;129564;1267;108086;-74
2023/07/02 09:20:45;;;;;;;3.50;2.70;;;;;;;23.26;63.39;99035.23;129558;1269;108773;-74
2023/07/02 09:23:50;;;;;;;4.50;2.40;;;;;;;23.23;64.03;99034.74;129531;1270;107584;-74
2023/07/02 09:26:57;;;;;;;2.90;2.50;;;;;;;23.45;64.63;99033.17;129604;1270;107572;-74
2023/07/02 09:30:09;;;;;;;3.40;2.60;;;;;;;23.81;64.32;99031.64;129508;1267;107182;-74
2023/07/02 09:33:16;;;;;;;2.70;2.50;;;;;;;23.91;63.36;99025.84;129594;1270;107416;-74
2023/07/02 09:36:22;;;;;;;2.70;2.50;;;;;;;24.21;63.79;99023.95;129500;1270;107432;-74
2023/07/02 09:39:33;;;;;;;3.30;2.50;;;;;;;24.56;62.87;99026.05;129499;1270;107612;-74
2023/07/02 09:42:42;;;;;;;4.00;2.30;;;;;;;24.59;62.09;99023.55;129517;1270;107966;-74
2023/07/02 09:45:51;;;;;;;2.90;2.50;;;;;;;24.63;61.48;99022.84;129561;1270;107507;-74
2023/07/02 09:48:58;;;;;;;3.00;2.70;;;;;;;24.66;61.10;99025.50;129532;1269;107545;-74
2023/07/02 09:52:06;;;;;;;2.80;2.40;;;;;;;24.74;61.48;99021.34;129574;1270;107450;-74
2023/07/02 09:55:12;;;;;;;2.40;2.20;;;;;;;24.89;61.88;99023.80;129632;1270;107611;-74
2023/07/02 09:58:18;;;;;;;3.10;2.20;;;;;;;25.07;61.94;99027.61;129413;1267;108143;-74
2023/07/02 10:01:24;;;;;;;2.60;2.40;;;;;;;25.27;61.72;99021.00;129491;1271;106219;-74
2023/07/02 10:04:40;;;;;;;2.50;2.30;;;;;;;25.39;61.55;99014.84;129505;1271;107726;-74
2023/07/02 10:07:45;;;;;;;2.70;2.00;;;;;;;25.39;60.03;99014.56;129534;1270;107519;-74
2023/07/02 10:10:51;;;;;;;2.40;2.00;;;;;;;25.33;60.00;99018.41;129562;1270;107929;-74
2023/07/02 10:14:02;;;;;;;2.50;2.20;;;;;;;25.32;59.96;99018.91;129546;1270;107581;-74
2023/07/02 10:17:08;;;;;;;2.30;2.10;;;;;;;25.16;59.78;99017.27;129538;1267;107549;-73
2023/07/02 10:20:15;;;;;;;2.20;2.00;;;;;;;24.91;59.12;99021.98;129537;1270;107564;-73
2023/07/02 10:23:21;;;;;;;2.30;2.10;;;;;;;24.82;59.91;99010.14;129520;1267;107288;-73
2023/07/02 10:26:27;;;;;;;2.50;2.30;;;;;;;24.96;60.29;99017.12;129556;1270;107658;-73
2023/07/02 10:29:32;;;;;;;2.60;2.30;;;;;;;25.18;60.10;99019.29;129554;1271;107357;-73
2023/07/02 10:32:39;;;;;;;2.50;2.30;;;;;;;25.25;59.58;99021.29;129565;1269;107581;-73
2023/07/02 10:35:47;;;;;;;3.00;2.20;;;;;;;25.07;58.50;99021.78;129557;1270;107546;-73
2023/07/02 10:38:53;;;;;;;2.30;2.10;;;;;;;24.76;58.27;99013.96;129569;1271;107464;-73
2023/07/02 10:42:06;;;;;;;2.40;2.20;;;;;;;24.57;59.15;99018.65;129428;1270;107471;-73
2023/07/02 10:45:12;;;;;;;1.80;1.70;;;;;;;24.58;59.43;99024.59;129560;1268;107562;-73
2023/07/02 10:48:17;;;;;;;2.40;2.20;;;;;;;24.38;57.18;99023.50;129556;1270;107436;-73
2023/07/02 10:51:23;;;;;;;2.20;2.00;;;;;;;24.22;58.87;99029.41;129528;1269;107548;-73
2023/07/02 10:54:41;;;;;;;2.90;2.10;;;;;;;24.15;58.82;99029.94;129582;1270;107587;-75
2023/07/02 10:57:47;;;;;;;2.80;2.10;;;;;;;24.02;58.96;99030.31;129502;1268;107586;-75
2023/07/02 11:00:53;;;;;;;2.10;1.90;;;;;;;23.97;59.27;99035.44;129550;1267;107432;-75
2023/07/02 11:04:00;;;;;;;2.40;2.20;;;;;;;23.99;59.57;99035.70;129530;1270;106866;-75
2023/07/02 11:07:07;;;;;;;3.80;2.10;;;;;;;24.10;59.40;99037.25;129577;1270;107431;-75
2023/07/02 11:10:20;;;;;;;2.60;2.40;;;;;;;24.20;59.44;99034.09;129627;1270;107618;-75
2023/07/02 11:13:25;;;;;;;2.60;2.20;;;;;;;24.24;58.95;99038.88;129547;1267;107703;-75
2023/07/02 11:16:32;;;;;;;2.30;2.10;;;;;;;24.29;59.04;99035.44;129491;1270;107575;-75
2023/07/02 11:19:38;;;;;;;3.70;1.70;;;;;;;24.53;58.78;99026.77;129549;1270;107395;-75
2023/07/02 11:22:44;;;;;;;2.80;1.90;;;;;;;24.83;58.43;99028.30;129551;1270;107660;-75
2023/07/02 11:25:59;;;;;;;1.80;1.70;;;;;;;25.00;57.52;99024.42;129555;1267;105496;-76
2023/07/02 11:29:09;;;;;;;3.50;1.70;;;;;;;25.13;58.10;99030.87;129563;1270;107481;-76
2023/07/02 11:32:15;;;;;;;1.60;1.50;;;;;;;25.23;57.97;99032.70;129538;1270;107702;-75
2023/07/02 11:39:49;;;;;;;1.60;1.50;;;;;;;25.27;57.66;99030.83;129481;1273;107524;-76
2023/07/02 11:42:55;;;;;;;2.80;1.70;;;;;;;25.05;57.59;99032.92;129425;1281;107695;-75
2023/07/02 11:46:01;;;;;;;3.60;1.70;;;;;;;24.86;56.66;99032.92;129369;1273;107540;-75
2023/07/02 11:49:08;;;;;;;2.50;1.70;;;;;;;24.59;56.35;99041.77;129422;1268;107595;-75
2023/07/02 11:52:14;;;;;;;2.50;1.90;;;;;;;24.09;56.34;99045.79;129121;1273;107497;-75
2023/07/02 11:55:20;;;;;;;3.00;1.70;;;;;;;23.86;57.25;99051.50;129196;1270;108085;-75
2023/07/02 11:58:25;;;;;;;2.10;1.90;;;;;;;23.75;55.70;99053.58;129181;1273;107527;-75
2023/07/02 12:01:32;;;;;;;2.30;1.60;;;;;;;23.63;55.71;99052.71;129052;1273;107570;-75
2023/07/02 12:04:37;;;;;;;1.80;1.70;;;;;;;23.43;56.02;99051.69;129266;1270;107302;-75
2023/07/02 12:07:43;;;;;;;1.60;1.50;;;;;;;23.51;55.39;99050.58;129417;1267;106887;-74
2023/07/02 12:10:48;;;;;;;2.30;1.80;;;;;;;23.64;54.86;99051.74;129502;1273;106111;-75
2023/07/02 12:13:54;;;;;;;2.60;1.70;;;;;;;23.82;53.64;99054.48;129412;1273;107654;-78
2023/07/02 12:16:59;;;;;;;1.80;1.70;;;;;;;23.94;54.57;99051.40;129297;1268;107613;-77
2023/07/02 12:20:06;;;;;;;2.90;1.70;;;;;;;23.98;53.00;99050.96;129419;1273;107689;-78
2023/07/02 12:23:11;;;;;;;2.60;1.70;;;;;;;23.95;53.11;99053.25;130847;1270;107552;-79
2023/07/02 12:26:17;;;;;;;2.90;1.30;;;;;;;24.01;53.20;99062.53;129560;1271;107460;-82
2023/07/02 12:29:22;;;;;;;3.40;1.70;;;;;;;24.08;51.50;99058.94;129145;1273;107575;-82
2023/07/02 12:32:28;;;;;;;3.40;1.60;;;;;;;23.99;49.29;99061.48;129176;1273;107686;-81
2023/07/02 12:35:34;;;;;;;1.70;1.50;;;;;;;23.91;51.03;99065.79;129333;1271;107549;-77
2023/07/02 12:38:39;;;;;;;3.80;1.40;;;;;;;23.85;49.55;99066.96;129271;1267;224995;-77
2023/07/02 12:41:45;;;;;;;1.70;1.50;;;;;;;23.83;50.89;99070.11;129736;1270;107602;-77
2023/07/02 12:44:50;;;;;;;4.90;1.50;;;;;;;23.80;49.66;99072.34;129606;1270;107537;-77
2023/07/02 12:47:56;;;;;;;3.80;1.70;;;;;;;23.69;49.79;99071.48;129548;1270;107503;-79
2023/07/02 12:51:02;;;;;;;2.30;1.70;;;;;;;23.59;49.34;99071.34;129538;1268;108422;-78
2023/07/02 12:54:07;;;;;;;2.20;1.70;;;;;;;23.41;48.43;99069.21;129521;1271;107543;-77
2023/07/02 12:57:13;;;;;;;2.20;1.80;;;;;;;23.38;49.76;99073.51;129445;1270;107580;-77
2023/07/02 13:00:20;;;;;;;2.30;1.70;;;;;;;23.46;49.07;99071.41;129531;1270;107537;-78
2023/07/02 13:03:26;;;;;;;2.70;1.80;;;;;;;23.53;49.25;99074.64;129529;1270;107415;-75
2023/07/02 13:06:34;;;;;;;2.00;1.80;;;;;;;23.51;48.89;99080.85;129541;1268;107415;-77
2023/07/02 13:09:39;;;;;;;2.70;1.80;;;;;;;23.46;49.43;99084.81;129537;1268;107284;-76
2023/07/02 13:12:45;;;;;;;1.70;1.60;;;;;;;23.34;47.23;99088.02;129251;1273;107750;-76
2023/07/02 13:15:51;;;;;;;1.70;1.60;;;;;;;23.21;47.41;99094.23;129119;1272;107560;-77
2023/07/02 13:18:56;;;;;;;3.30;1.60;;;;;;;23.17;47.94;99098.87;129271;1273;107497;-77
2023/07/02 13:22:03;;;;;;;2.00;1.60;;;;;;;23.17;47.81;99101.83;129368;1273;105888;-77
2023/07/02 13:25:10;;;;;;;1.70;1.60;;;;;;;23.25;48.33;99097.89;129265;1268;107257;-77
2023/07/02 13:28:16;;;;;;;1.60;1.50;;;;;;;23.49;48.70;99097.27;129283;1268;107261;-78
2023/07/02 13:31:22;;;;;;;1.50;1.40;;;;;;;23.73;48.86;99102.48;129214;1273;105903;-77
2023/07/02 13:34:27;;;;;;;2.60;1.70;;;;;;;23.87;47.31;99109.02;129164;1273;107576;-77
2023/07/02 13:37:33;;;;;;;1.70;1.40;;;;;;;23.68;46.49;99109.50;129399;1267;107466;-77
2023/07/02 13:40:38;;;;;;;1.80;1.50;;;;;;;23.64;47.35;99114.66;129540;1271;107582;-77
2023/07/02 13:43:43;;;;;;;1.80;1.60;;;;;;;23.70;48.00;99114.35;129511;1267;107389;-76
2023/07/02 13:46:50;;;;;;;1.60;1.50;;;;;;;23.85;48.15;99119.05;129392;1267;106304;-77
2023/07/02 13:49:55;;;;;;;2.30;1.60;;;;;;;24.01;47.94;99116.04;129431;1273;106574;-77
2023/07/02 13:53:01;;;;;;;2.30;1.50;;;;;;;24.20;48.44;99118.80;129516;1267;107591;-78
2023/07/02 13:56:06;;;;;;;1.60;1.50;;;;;;;24.50;48.68;99121.45;129552;1272;107385;-78
2023/07/02 13:59:12;;;;;;;3.10;1.60;;;;;;;24.69;48.36;99120.69;129511;1273;107535;-76
2023/07/02 14:02:18;;;;;;;2.60;1.70;;;;;;;24.77;47.47;99121.06;129484;1267;106356;-76
2023/07/02 14:05:24;;;;;;;1.90;1.70;;;;;;;24.69;47.53;99117.85;129258;1271;107590;-75
2023/07/02 14:08:29;;;;;;;1.80;1.70;;;;;;;24.63;46.09;99113.17;129554;1270;107436;-78
2023/07/02 14:11:38;;;;;;;1.90;1.70;;;;;;;24.63;47.57;99105.96;129537;1267;107581;-78
2023/07/02 14:14:46;;;;;;;1.90;1.70;;;;;;;24.82;47.51;99107.58;129533;1270;107586;-78
2023/07/02 14:17:51;;;;;;;3.60;1.80;;;;;;;24.94;46.97;99113.95;129484;1267;107257;-78